sensor_id;sensor_type;location;lat;lon;timestamp;P1;durP1;ratioP1;P2;durP2;ratioP2
18520;SDS011;9390;51.244;6.982;2023-12-22T00:02:12;8.00;;;1.60;;
18520;SDS011;9390;51.244;6.982;2023-12-22T00:04:43;9.60;;;1.58;;
18520;SDS011;9390;51.244;6.982;2023-12-22T00:07:14;9.85;;;1.60;;
18520;SDS011;9390;51.244;6.982;2023-12-22T00:09:46;6.35;;;1.33;;
18520;SDS011;9390;51.244;6.982;2023-12-22T00:12:19;6.10;;;1.70;;
18520;SDS011;9390;51.244;6.982;2023-12-22T00:14:50;8.00;;;2.85;;
18520;SDS011;9390;51.244;6.982;2023-12-22T00:17:21;7.53;;;1.50;;
18520;SDS011;9390;51.244;6.982;2023-12-22T00:19:53;14.40;;;2.20;;
18520;SDS011;9390;51.244;6.982;2023-12-22T00:22:26;8.05;;;1.67;;
18520;SDS011;9390;51.244;6.982;2023-12-22T00:24:57;10.57;;;1.80;;
18520;SDS011;9390;51.244;6.982;2023-12-22T00:27:30;13.73;;;1.65;;
18520;SDS011;9390;51.244;6.982;2023-12-22T00:30:01;12.13;;;2.58;;
18520;SDS011;9390;51.244;6.982;2023-12-22T00:32:33;7.10;;;1.85;;
18520;SDS011;9390;51.244;6.982;2023-12-22T00:35:05;15.68;;;2.30;;
18520;SDS011;9390;51.244;6.982;2023-12-22T00:37:36;7.72;;;1.52;;
18520;SDS011;9390;51.244;6.982;2023-12-22T00:40:08;5.13;;;1.30;;
18520;SDS011;9390;51.244;6.982;2023-12-22T00:42:42;13.18;;;1.75;;
18520;SDS011;9390;51.244;6.982;2023-12-22T00:45:13;7.60;;;1.60;;
18520;SDS011;9390;51.244;6.982;2023-12-22T00:47:44;13.02;;;2.15;;
18520;SDS011;9390;51.244;6.982;2023-12-22T00:50:16;6.63;;;1.40;;
18520;SDS011;9390;51.244;6.982;2023-12-22T00:52:47;11.40;;;1.60;;
18520;SDS011;9390;51.244;6.982;2023-12-22T00:55:18;11.77;;;1.70;;
18520;SDS011;9390;51.244;6.982;2023-12-22T00:57:51;11.20;;;1.60;;
18520;SDS011;9390;51.244;6.982;2023-12-22T01:00:22;7.53;;;1.35;;
18520;SDS011;9390;51.244;6.982;2023-12-22T01:02:54;13.88;;;2.42;;
18520;SDS011;9390;51.244;6.982;2023-12-22T01:05:25;7.07;;;1.98;;
18520;SDS011;9390;51.244;6.982;2023-12-22T01:07:56;7.82;;;1.58;;
18520;SDS011;9390;51.244;6.982;2023-12-22T01:10:28;10.63;;;1.85;;
18520;SDS011;9390;51.244;6.982;2023-12-22T01:13:00;12.30;;;2.45;;
18520;SDS011;9390;51.244;6.982;2023-12-22T01:15:32;8.60;;;1.90;;
18520;SDS011;9390;51.244;6.982;2023-12-22T01:18:03;11.52;;;2.17;;
18520;SDS011;9390;51.244;6.982;2023-12-22T01:20:35;13.98;;;1.98;;
18520;SDS011;9390;51.244;6.982;2023-12-22T01:23:06;7.63;;;1.80;;
18520;SDS011;9390;51.244;6.982;2023-12-22T01:25:38;13.57;;;1.92;;
18520;SDS011;9390;51.244;6.982;2023-12-22T01:28:10;14.13;;;2.45;;
18520;SDS011;9390;51.244;6.982;2023-12-22T01:30:42;8.45;;;1.88;;
18520;SDS011;9390;51.244;6.982;2023-12-22T01:33:13;10.25;;;1.85;;
18520;SDS011;9390;51.244;6.982;2023-12-22T01:35:44;11.88;;;2.10;;
18520;SDS011;9390;51.244;6.982;2023-12-22T01:38:16;10.07;;;1.55;;
18520;SDS011;9390;51.244;6.982;2023-12-22T01:40:47;10.75;;;1.75;;
18520;SDS011;9390;51.244;6.982;2023-12-22T01:43:20;9.13;;;1.85;;
18520;SDS011;9390;51.244;6.982;2023-12-22T01:45:55;15.35;;;1.98;;
18520;SDS011;9390;51.244;6.982;2023-12-22T01:48:27;12.73;;;1.75;;
18520;SDS011;9390;51.244;6.982;2023-12-22T01:50:58;6.57;;;2.15;;
18520;SDS011;9390;51.244;6.982;2023-12-22T01:53:31;12.05;;;1.92;;
18520;SDS011;9390;51.244;6.982;2023-12-22T01:56:03;8.02;;;2.30;;
18520;SDS011;9390;51.244;6.982;2023-12-22T01:58:37;6.60;;;1.70;;
18520;SDS011;9390;51.244;6.982;2023-12-22T02:01:08;14.00;;;1.73;;
18520;SDS011;9390;51.244;6.982;2023-12-22T02:03:40;6.05;;;1.50;;
18520;SDS011;9390;51.244;6.982;2023-12-22T02:06:11;14.00;;;1.88;;
18520;SDS011;9390;51.244;6.982;2023-12-22T02:08:42;9.63;;;2.00;;
18520;SDS011;9390;51.244;6.982;2023-12-22T02:11:15;10.90;;;2.17;;
18520;SDS011;9390;51.244;6.982;2023-12-22T02:13:48;7.22;;;1.70;;
18520;SDS011;9390;51.244;6.982;2023-12-22T02:16:21;8.93;;;2.20;;
18520;SDS011;9390;51.244;6.982;2023-12-22T02:18:56;7.68;;;2.25;;
18520;SDS011;9390;51.244;6.982;2023-12-22T02:21:28;6.65;;;1.58;;
18520;SDS011;9390;51.244;6.982;2023-12-22T02:24:01;13.70;;;1.50;;
18520;SDS011;9390;51.244;6.982;2023-12-22T02:26:33;6.28;;;1.38;;
18520;SDS011;9390;51.244;6.982;2023-12-22T02:29:12;10.07;;;1.35;;
18520;SDS011;9390;51.244;6.982;2023-12-22T02:31:45;4.53;;;1.10;;
18520;SDS011;9390;51.244;6.982;2023-12-22T02:34:21;5.72;;;1.38;;
18520;SDS011;9390;51.244;6.982;2023-12-22T02:36:52;7.63;;;1.52;;
18520;SDS011;9390;51.244;6.982;2023-12-22T02:39:26;3.83;;;1.10;;
18520;SDS011;9390;51.244;6.982;2023-12-22T02:41:57;6.45;;;1.25;;
18520;SDS011;9390;51.244;6.982;2023-12-22T02:44:29;5.85;;;1.55;;
18520;SDS011;9390;51.244;6.982;2023-12-22T02:47:00;8.02;;;1.45;;
18520;SDS011;9390;51.244;6.982;2023-12-22T02:49:32;4.30;;;1.10;;
18520;SDS011;9390;51.244;6.982;2023-12-22T02:52:03;7.25;;;1.20;;
18520;SDS011;9390;51.244;6.982;2023-12-22T02:54:37;12.52;;;1.67;;
18520;SDS011;9390;51.244;6.982;2023-12-22T02:57:10;8.98;;;2.20;;
18520;SDS011;9390;51.244;6.982;2023-12-22T02:59:41;6.68;;;1.55;;
18520;SDS011;9390;51.244;6.982;2023-12-22T03:02:12;9.63;;;1.75;;
18520;SDS011;9390;51.244;6.982;2023-12-22T03:04:44;6.13;;;1.58;;
18520;SDS011;9390;51.244;6.982;2023-12-22T03:07:16;8.77;;;1.50;;
18520;SDS011;9390;51.244;6.982;2023-12-22T03:09:49;6.75;;;1.42;;
18520;SDS011;9390;51.244;6.982;2023-12-22T03:12:20;3.55;;;1.42;;
18520;SDS011;9390;51.244;6.982;2023-12-22T03:14:51;6.68;;;1.50;;
18520;SDS011;9390;51.244;6.982;2023-12-22T03:17:23;4.88;;;1.50;;
18520;SDS011;9390;51.244;6.982;2023-12-22T03:19:54;6.40;;;1.25;;
18520;SDS011;9390;51.244;6.982;2023-12-22T03:22:26;7.07;;;1.48;;
18520;SDS011;9390;51.244;6.982;2023-12-22T03:24:58;6.18;;;1.70;;
18520;SDS011;9390;51.244;6.982;2023-12-22T03:27:30;11.07;;;1.60;;
18520;SDS011;9390;51.244;6.982;2023-12-22T03:30:01;5.18;;;1.63;;
18520;SDS011;9390;51.244;6.982;2023-12-22T03:32:33;8.10;;;1.90;;
18520;SDS011;9390;51.244;6.982;2023-12-22T03:35:05;11.75;;;2.22;;
18520;SDS011;9390;51.244;6.982;2023-12-22T03:37:37;9.73;;;2.55;;
18520;SDS011;9390;51.244;6.982;2023-12-22T03:40:10;9.63;;;2.97;;
18520;SDS011;9390;51.244;6.982;2023-12-22T03:42:41;8.85;;;2.30;;
18520;SDS011;9390;51.244;6.982;2023-12-22T03:45:13;7.65;;;2.03;;
18520;SDS011;9390;51.244;6.982;2023-12-22T03:47:44;15.43;;;2.38;;
18520;SDS011;9390;51.244;6.982;2023-12-22T03:50:16;16.20;;;2.67;;
18520;SDS011;9390;51.244;6.982;2023-12-22T03:52:48;7.78;;;2.53;;
18520;SDS011;9390;51.244;6.982;2023-12-22T03:55:23;7.18;;;2.30;;
18520;SDS011;9390;51.244;6.982;2023-12-22T03:57:54;6.63;;;2.53;;
18520;SDS011;9390;51.244;6.982;2023-12-22T04:00:25;12.05;;;2.13;;
18520;SDS011;9390;51.244;6.982;2023-12-22T04:02:57;6.28;;;2.05;;
18520;SDS011;9390;51.244;6.982;2023-12-22T04:05:28;15.18;;;2.50;;
18520;SDS011;9390;51.244;6.982;2023-12-22T04:07:59;5.28;;;1.65;;
18520;SDS011;9390;51.244;6.982;2023-12-22T04:10:32;7.70;;;1.90;;
18520;SDS011;9390;51.244;6.982;2023-12-22T04:13:04;11.30;;;2.03;;
18520;SDS011;9390;51.244;6.982;2023-12-22T04:15:35;10.48;;;1.73;;
18520;SDS011;9390;51.244;6.982;2023-12-22T04:18:07;9.75;;;2.30;;
18520;SDS011;9390;51.244;6.982;2023-12-22T04:20:38;17.35;;;2.53;;
18520;SDS011;9390;51.244;6.982;2023-12-22T04:23:12;12.02;;;2.08;;
18520;SDS011;9390;51.244;6.982;2023-12-22T04:25:45;16.30;;;3.22;;
18520;SDS011;9390;51.244;6.982;2023-12-22T04:28:16;12.30;;;2.83;;
18520;SDS011;9390;51.244;6.982;2023-12-22T04:30:47;13.15;;;2.35;;
18520;SDS011;9390;51.244;6.982;2023-12-22T04:33:19;10.65;;;2.15;;
18520;SDS011;9390;51.244;6.982;2023-12-22T04:35:50;12.88;;;2.45;;
18520;SDS011;9390;51.244;6.982;2023-12-22T04:38:21;8.95;;;2.22;;
18520;SDS011;9390;51.244;6.982;2023-12-22T04:40:54;10.48;;;2.40;;
18520;SDS011;9390;51.244;6.982;2023-12-22T04:43:25;12.43;;;2.63;;
18520;SDS011;9390;51.244;6.982;2023-12-22T04:45:57;12.60;;;2.45;;
18520;SDS011;9390;51.244;6.982;2023-12-22T04:48:28;15.88;;;2.25;;
18520;SDS011;9390;51.244;6.982;2023-12-22T04:51:03;13.65;;;2.15;;
18520;SDS011;9390;51.244;6.982;2023-12-22T04:53:34;13.60;;;1.95;;
18520;SDS011;9390;51.244;6.982;2023-12-22T04:56:07;14.98;;;3.20;;
18520;SDS011;9390;51.244;6.982;2023-12-22T04:58:38;13.23;;;2.20;;
18520;SDS011;9390;51.244;6.982;2023-12-22T05:01:10;18.55;;;2.72;;
18520;SDS011;9390;51.244;6.982;2023-12-22T05:03:41;24.98;;;4.18;;
18520;SDS011;9390;51.244;6.982;2023-12-22T05:06:13;16.85;;;4.50;;
18520;SDS011;9390;51.244;6.982;2023-12-22T05:08:44;16.30;;;2.75;;
18520;SDS011;9390;51.244;6.982;2023-12-22T05:11:17;15.33;;;3.10;;
18520;SDS011;9390;51.244;6.982;2023-12-22T05:13:49;12.07;;;2.20;;
18520;SDS011;9390;51.244;6.982;2023-12-22T05:16:20;19.45;;;3.40;;
18520;SDS011;9390;51.244;6.982;2023-12-22T05:18:51;16.35;;;3.17;;
18520;SDS011;9390;51.244;6.982;2023-12-22T05:21:23;21.92;;;4.38;;
18520;SDS011;9390;51.244;6.982;2023-12-22T05:23:54;16.02;;;2.85;;
18520;SDS011;9390;51.244;6.982;2023-12-22T05:26:27;17.23;;;2.30;;
18520;SDS011;9390;51.244;6.982;2023-12-22T05:29:00;14.13;;;2.95;;
18520;SDS011;9390;51.244;6.982;2023-12-22T05:31:31;14.63;;;3.35;;
18520;SDS011;9390;51.244;6.982;2023-12-22T05:34:04;15.57;;;2.53;;
18520;SDS011;9390;51.244;6.982;2023-12-22T05:36:35;16.58;;;3.65;;
18520;SDS011;9390;51.244;6.982;2023-12-22T05:39:07;13.75;;;3.35;;
18520;SDS011;9390;51.244;6.982;2023-12-22T05:41:41;23.10;;;4.43;;
18520;SDS011;9390;51.244;6.982;2023-12-22T05:44:12;15.70;;;4.20;;
18520;SDS011;9390;51.244;6.982;2023-12-22T05:46:43;15.25;;;3.13;;
18520;SDS011;9390;51.244;6.982;2023-12-22T05:49:15;18.42;;;3.80;;
18520;SDS011;9390;51.244;6.982;2023-12-22T05:51:46;14.52;;;3.05;;
18520;SDS011;9390;51.244;6.982;2023-12-22T05:54:17;13.90;;;2.83;;
18520;SDS011;9390;51.244;6.982;2023-12-22T05:56:50;10.02;;;2.50;;
18520;SDS011;9390;51.244;6.982;2023-12-22T05:59:22;6.25;;;2.30;;
18520;SDS011;9390;51.244;6.982;2023-12-22T06:01:53;9.07;;;2.42;;
18520;SDS011;9390;51.244;6.982;2023-12-22T06:04:24;13.18;;;2.35;;
18520;SDS011;9390;51.244;6.982;2023-12-22T06:06:59;12.98;;;2.08;;
18520;SDS011;9390;51.244;6.982;2023-12-22T06:09:30;11.82;;;2.20;;
18520;SDS011;9390;51.244;6.982;2023-12-22T06:12:03;10.65;;;1.98;;
18520;SDS011;9390;51.244;6.982;2023-12-22T06:14:36;13.88;;;2.67;;
18520;SDS011;9390;51.244;6.982;2023-12-22T06:17:07;8.07;;;2.05;;
18520;SDS011;9390;51.244;6.982;2023-12-22T06:19:38;8.80;;;2.20;;
18520;SDS011;9390;51.244;6.982;2023-12-22T06:22:10;17.70;;;2.63;;
18520;SDS011;9390;51.244;6.982;2023-12-22T06:24:41;13.68;;;2.72;;
18520;SDS011;9390;51.244;6.982;2023-12-22T06:27:14;14.25;;;2.80;;
18520;SDS011;9390;51.244;6.982;2023-12-22T06:29:45;17.50;;;3.20;;
18520;SDS011;9390;51.244;6.982;2023-12-22T06:32:17;10.55;;;2.60;;
18520;SDS011;9390;51.244;6.982;2023-12-22T06:34:48;16.50;;;3.63;;
18520;SDS011;9390;51.244;6.982;2023-12-22T06:37:20;16.90;;;3.72;;
18520;SDS011;9390;51.244;6.982;2023-12-22T06:39:51;11.90;;;2.50;;
18520;SDS011;9390;51.244;6.982;2023-12-22T06:42:24;11.82;;;2.38;;
18520;SDS011;9390;51.244;6.982;2023-12-22T06:44:55;14.45;;;2.55;;
18520;SDS011;9390;51.244;6.982;2023-12-22T06:47:26;9.13;;;2.25;;
18520;SDS011;9390;51.244;6.982;2023-12-22T06:49:58;13.18;;;2.53;;
18520;SDS011;9390;51.244;6.982;2023-12-22T06:52:29;9.68;;;2.50;;
18520;SDS011;9390;51.244;6.982;2023-12-22T06:55:01;15.80;;;3.40;;
18520;SDS011;9390;51.244;6.982;2023-12-22T06:57:34;15.32;;;3.22;;
18520;SDS011;9390;51.244;6.982;2023-12-22T07:00:06;12.30;;;2.58;;
18520;SDS011;9390;51.244;6.982;2023-12-22T07:02:38;15.13;;;3.65;;
18520;SDS011;9390;51.244;6.982;2023-12-22T07:08:04;12.93;;;2.25;;
18520;SDS011;9390;51.244;6.982;2023-12-22T07:10:36;13.07;;;2.72;;
18520;SDS011;9390;51.244;6.982;2023-12-22T07:13:08;20.60;;;3.00;;
18520;SDS011;9390;51.244;6.982;2023-12-22T07:15:40;11.73;;;2.85;;
18520;SDS011;9390;51.244;6.982;2023-12-22T07:18:11;16.70;;;2.45;;
18520;SDS011;9390;51.244;6.982;2023-12-22T07:20:43;11.30;;;2.88;;
18520;SDS011;9390;51.244;6.982;2023-12-22T07:23:14;21.55;;;2.92;;
18520;SDS011;9390;51.244;6.982;2023-12-22T07:25:45;11.95;;;2.63;;
18520;SDS011;9390;51.244;6.982;2023-12-22T07:28:18;19.30;;;2.75;;
18520;SDS011;9390;51.244;6.982;2023-12-22T07:30:49;14.40;;;2.80;;
18520;SDS011;9390;51.244;6.982;2023-12-22T07:33:21;16.75;;;2.92;;
18520;SDS011;9390;51.244;6.982;2023-12-22T07:35:52;24.58;;;3.13;;
18520;SDS011;9390;51.244;6.982;2023-12-22T07:38:23;14.52;;;3.20;;
18520;SDS011;9390;51.244;6.982;2023-12-22T07:40:55;15.13;;;3.58;;
18520;SDS011;9390;51.244;6.982;2023-12-22T07:43:27;13.68;;;2.88;;
18520;SDS011;9390;51.244;6.982;2023-12-22T07:48:30;16.02;;;2.88;;
18520;SDS011;9390;51.244;6.982;2023-12-22T07:51:02;10.25;;;2.25;;
18520;SDS011;9390;51.244;6.982;2023-12-22T07:53:33;11.25;;;2.50;;
18520;SDS011;9390;51.244;6.982;2023-12-22T07:56:05;17.33;;;3.08;;
18520;SDS011;9390;51.244;6.982;2023-12-22T07:58:39;20.25;;;3.55;;
18520;SDS011;9390;51.244;6.982;2023-12-22T08:01:12;18.52;;;3.17;;
18520;SDS011;9390;51.244;6.982;2023-12-22T08:03:45;10.98;;;2.92;;
18520;SDS011;9390;51.244;6.982;2023-12-22T08:06:16;15.13;;;3.53;;
18520;SDS011;9390;51.244;6.982;2023-12-22T08:08:48;19.52;;;3.78;;
18520;SDS011;9390;51.244;6.982;2023-12-22T08:11:19;17.48;;;2.90;;
18520;SDS011;9390;51.244;6.982;2023-12-22T08:13:55;11.02;;;2.75;;
18520;SDS011;9390;51.244;6.982;2023-12-22T08:16:26;22.25;;;3.78;;
18520;SDS011;9390;51.244;6.982;2023-12-22T08:18:58;21.30;;;3.47;;
18520;SDS011;9390;51.244;6.982;2023-12-22T08:21:29;21.67;;;3.47;;
18520;SDS011;9390;51.244;6.982;2023-12-22T08:24:00;18.27;;;3.63;;
18520;SDS011;9390;51.244;6.982;2023-12-22T08:26:32;22.00;;;3.83;;
18520;SDS011;9390;51.244;6.982;2023-12-22T08:29:04;29.08;;;4.18;;
18520;SDS011;9390;51.244;6.982;2023-12-22T08:31:37;26.80;;;3.90;;
18520;SDS011;9390;51.244;6.982;2023-12-22T08:34:08;24.63;;;3.72;;
18520;SDS011;9390;51.244;6.982;2023-12-22T08:36:40;23.25;;;3.42;;
18520;SDS011;9390;51.244;6.982;2023-12-22T08:39:11;23.08;;;4.35;;
18520;SDS011;9390;51.244;6.982;2023-12-22T08:41:43;25.17;;;3.70;;
18520;SDS011;9390;51.244;6.982;2023-12-22T08:44:16;23.27;;;4.82;;
18520;SDS011;9390;51.244;6.982;2023-12-22T08:46:47;18.92;;;4.30;;
18520;SDS011;9390;51.244;6.982;2023-12-22T08:49:19;26.23;;;4.90;;
18520;SDS011;9390;51.244;6.982;2023-12-22T08:51:51;24.92;;;4.43;;
18520;SDS011;9390;51.244;6.982;2023-12-22T08:54:22;42.15;;;5.38;;
18520;SDS011;9390;51.244;6.982;2023-12-22T08:56:54;23.20;;;4.65;;
18520;SDS011;9390;51.244;6.982;2023-12-22T08:59:26;24.85;;;4.22;;
18520;SDS011;9390;51.244;6.982;2023-12-22T09:01:58;28.10;;;5.00;;
18520;SDS011;9390;51.244;6.982;2023-12-22T09:04:29;26.55;;;4.60;;
18520;SDS011;9390;51.244;6.982;2023-12-22T09:07:01;29.30;;;4.80;;
18520;SDS011;9390;51.244;6.982;2023-12-22T09:09:32;25.38;;;4.40;;
18520;SDS011;9390;51.244;6.982;2023-12-22T09:12:04;27.63;;;5.60;;
18520;SDS011;9390;51.244;6.982;2023-12-22T09:14:37;27.08;;;5.95;;
18520;SDS011;9390;51.244;6.982;2023-12-22T09:17:08;33.38;;;5.32;;
18520;SDS011;9390;51.244;6.982;2023-12-22T09:19:39;29.42;;;5.95;;
18520;SDS011;9390;51.244;6.982;2023-12-22T09:22:12;38.05;;;6.53;;
18520;SDS011;9390;51.244;6.982;2023-12-22T09:24:44;38.15;;;6.22;;
18520;SDS011;9390;51.244;6.982;2023-12-22T09:27:15;34.13;;;6.32;;
18520;SDS011;9390;51.244;6.982;2023-12-22T09:29:48;26.05;;;5.45;;
18520;SDS011;9390;51.244;6.982;2023-12-22T09:32:19;36.20;;;5.25;;
18520;SDS011;9390;51.244;6.982;2023-12-22T09:34:50;28.27;;;4.47;;
18520;SDS011;9390;51.244;6.982;2023-12-22T09:37:22;26.95;;;5.95;;
18520;SDS011;9390;51.244;6.982;2023-12-22T09:39:53;24.75;;;4.95;;
18520;SDS011;9390;51.244;6.982;2023-12-22T09:42:25;27.88;;;4.80;;
18520;SDS011;9390;51.244;6.982;2023-12-22T09:44:57;26.23;;;4.75;;
18520;SDS011;9390;51.244;6.982;2023-12-22T09:47:30;32.13;;;5.68;;
18520;SDS011;9390;51.244;6.982;2023-12-22T09:50:05;23.83;;;4.35;;
18520;SDS011;9390;51.244;6.982;2023-12-22T09:55:09;22.83;;;4.85;;
18520;SDS011;9390;51.244;6.982;2023-12-22T09:57:42;37.57;;;4.90;;
18520;SDS011;9390;51.244;6.982;2023-12-22T10:00:15;23.67;;;4.18;;
18520;SDS011;9390;51.244;6.982;2023-12-22T10:02:47;35.38;;;5.90;;
18520;SDS011;9390;51.244;6.982;2023-12-22T10:05:18;23.70;;;4.10;;
18520;SDS011;9390;51.244;6.982;2023-12-22T10:07:50;26.17;;;4.53;;
18520;SDS011;9390;51.244;6.982;2023-12-22T10:10:21;23.35;;;4.45;;
18520;SDS011;9390;51.244;6.982;2023-12-22T10:12:53;26.60;;;4.47;;
18520;SDS011;9390;51.244;6.982;2023-12-22T10:15:26;24.30;;;5.13;;
18520;SDS011;9390;51.244;6.982;2023-12-22T10:17:57;22.35;;;4.70;;
18520;SDS011;9390;51.244;6.982;2023-12-22T10:20:29;20.75;;;4.15;;
18520;SDS011;9390;51.244;6.982;2023-12-22T10:23:00;19.58;;;4.30;;
18520;SDS011;9390;51.244;6.982;2023-12-22T10:25:31;32.92;;;5.53;;
18520;SDS011;9390;51.244;6.982;2023-12-22T10:28:03;21.42;;;5.03;;
18520;SDS011;9390;51.244;6.982;2023-12-22T10:30:36;25.42;;;4.65;;
18520;SDS011;9390;51.244;6.982;2023-12-22T10:33:08;18.08;;;3.47;;
18520;SDS011;9390;51.244;6.982;2023-12-22T10:35:41;16.38;;;4.07;;
18520;SDS011;9390;51.244;6.982;2023-12-22T10:38:12;21.98;;;3.83;;
18520;SDS011;9390;51.244;6.982;2023-12-22T10:40:45;10.48;;;3.13;;
18520;SDS011;9390;51.244;6.982;2023-12-22T10:43:16;19.85;;;3.92;;
18520;SDS011;9390;51.244;6.982;2023-12-22T10:45:51;13.15;;;4.13;;
18520;SDS011;9390;51.244;6.982;2023-12-22T10:48:22;14.55;;;3.35;;
18520;SDS011;9390;51.244;6.982;2023-12-22T10:50:54;17.98;;;3.90;;
18520;SDS011;9390;51.244;6.982;2023-12-22T10:53:25;10.95;;;2.28;;
18520;SDS011;9390;51.244;6.982;2023-12-22T10:55:56;8.40;;;2.28;;
18520;SDS011;9390;51.244;6.982;2023-12-22T10:58:28;11.50;;;2.80;;
18520;SDS011;9390;51.244;6.982;2023-12-22T11:01:01;12.90;;;2.88;;
18520;SDS011;9390;51.244;6.982;2023-12-22T11:03:33;9.40;;;2.65;;
18520;SDS011;9390;51.244;6.982;2023-12-22T11:06:05;10.18;;;3.38;;
18520;SDS011;9390;51.244;6.982;2023-12-22T11:08:38;11.60;;;2.70;;
18520;SDS011;9390;51.244;6.982;2023-12-22T11:11:11;10.23;;;3.13;;
18520;SDS011;9390;51.244;6.982;2023-12-22T11:13:45;10.27;;;2.92;;
18520;SDS011;9390;51.244;6.982;2023-12-22T11:16:18;10.88;;;2.97;;
18520;SDS011;9390;51.244;6.982;2023-12-22T11:21:22;8.73;;;2.63;;
18520;SDS011;9390;51.244;6.982;2023-12-22T11:23:54;7.77;;;2.60;;
18520;SDS011;9390;51.244;6.982;2023-12-22T11:26:27;10.60;;;2.90;;
18520;SDS011;9390;51.244;6.982;2023-12-22T11:28:59;5.82;;;2.40;;
18520;SDS011;9390;51.244;6.982;2023-12-22T11:31:32;9.25;;;2.60;;
18520;SDS011;9390;51.244;6.982;2023-12-22T11:34:03;10.50;;;2.65;;
18520;SDS011;9390;51.244;6.982;2023-12-22T11:36:36;12.63;;;2.70;;
18520;SDS011;9390;51.244;6.982;2023-12-22T11:41:40;10.45;;;2.92;;
18520;SDS011;9390;51.244;6.982;2023-12-22T11:44:12;9.63;;;2.92;;
18520;SDS011;9390;51.244;6.982;2023-12-22T11:46:45;6.70;;;2.65;;
18520;SDS011;9390;51.244;6.982;2023-12-22T11:49:17;8.57;;;3.30;;
18520;SDS011;9390;51.244;6.982;2023-12-22T11:51:48;9.93;;;3.55;;
18520;SDS011;9390;51.244;6.982;2023-12-22T11:57:29;14.10;;;3.35;;
18520;SDS011;9390;51.244;6.982;2023-12-22T12:00:07;7.95;;;2.65;;
18520;SDS011;9390;51.244;6.982;2023-12-22T12:02:43;17.65;;;3.90;;
18520;SDS011;9390;51.244;6.982;2023-12-22T12:05:25;7.68;;;2.35;;
18520;SDS011;9390;51.244;6.982;2023-12-22T12:08:05;8.63;;;2.85;;
18520;SDS011;9390;51.244;6.982;2023-12-22T12:10:52;7.18;;;2.30;;
18520;SDS011;9390;51.244;6.982;2023-12-22T12:13:25;6.90;;;2.55;;
18520;SDS011;9390;51.244;6.982;2023-12-22T12:15:58;4.68;;;1.92;;
18520;SDS011;9390;51.244;6.982;2023-12-22T12:18:32;7.13;;;2.95;;
18520;SDS011;9390;51.244;6.982;2023-12-22T12:21:05;8.85;;;2.50;;
18520;SDS011;9390;51.244;6.982;2023-12-22T12:23:37;14.02;;;2.42;;
18520;SDS011;9390;51.244;6.982;2023-12-22T12:26:09;8.10;;;2.80;;
18520;SDS011;9390;51.244;6.982;2023-12-22T12:28:44;8.73;;;2.20;;
18520;SDS011;9390;51.244;6.982;2023-12-22T12:31:17;8.27;;;2.40;;
18520;SDS011;9390;51.244;6.982;2023-12-22T12:33:50;7.35;;;2.35;;
18520;SDS011;9390;51.244;6.982;2023-12-22T12:36:21;8.45;;;2.30;;
18520;SDS011;9390;51.244;6.982;2023-12-22T12:38:54;8.68;;;2.75;;
18520;SDS011;9390;51.244;6.982;2023-12-22T12:41:29;5.80;;;2.15;;
18520;SDS011;9390;51.244;6.982;2023-12-22T12:44:01;6.15;;;2.13;;
18520;SDS011;9390;51.244;6.982;2023-12-22T12:46:34;5.00;;;2.22;;
18520;SDS011;9390;51.244;6.982;2023-12-22T12:49:07;6.57;;;3.22;;
18520;SDS011;9390;51.244;6.982;2023-12-22T12:51:42;7.80;;;2.13;;
18520;SDS011;9390;51.244;6.982;2023-12-22T12:56:46;6.63;;;2.03;;
18520;SDS011;9390;51.244;6.982;2023-12-22T12:59:18;6.93;;;1.95;;
18520;SDS011;9390;51.244;6.982;2023-12-22T13:01:49;6.10;;;1.98;;
18520;SDS011;9390;51.244;6.982;2023-12-22T13:04:22;5.75;;;2.20;;
18520;SDS011;9390;51.244;6.982;2023-12-22T13:06:53;5.88;;;2.17;;
18520;SDS011;9390;51.244;6.982;2023-12-22T13:09:31;5.35;;;2.15;;
18520;SDS011;9390;51.244;6.982;2023-12-22T13:12:04;6.70;;;2.22;;
18520;SDS011;9390;51.244;6.982;2023-12-22T13:14:35;5.03;;;1.73;;
18520;SDS011;9390;51.244;6.982;2023-12-22T13:17:07;6.53;;;1.88;;
18520;SDS011;9390;51.244;6.982;2023-12-22T13:19:41;3.83;;;1.75;;
18520;SDS011;9390;51.244;6.982;2023-12-22T13:22:12;7.47;;;1.80;;
18520;SDS011;9390;51.244;6.982;2023-12-22T13:24:54;5.03;;;1.98;;
18520;SDS011;9390;51.244;6.982;2023-12-22T13:27:25;6.10;;;2.25;;
18520;SDS011;9390;51.244;6.982;2023-12-22T13:29:57;5.43;;;2.08;;
18520;SDS011;9390;51.244;6.982;2023-12-22T13:32:28;5.15;;;2.40;;
18520;SDS011;9390;51.244;6.982;2023-12-22T13:35:01;6.85;;;2.05;;
18520;SDS011;9390;51.244;6.982;2023-12-22T13:37:33;6.63;;;2.10;;
18520;SDS011;9390;51.244;6.982;2023-12-22T13:40:07;5.70;;;2.10;;
18520;SDS011;9390;51.244;6.982;2023-12-22T13:42:39;10.30;;;2.20;;
18520;SDS011;9390;51.244;6.982;2023-12-22T13:45:11;6.57;;;1.97;;
18520;SDS011;9390;51.244;6.982;2023-12-22T13:47:42;7.68;;;1.80;;
18520;SDS011;9390;51.244;6.982;2023-12-22T13:50:17;6.78;;;1.80;;
18520;SDS011;9390;51.244;6.982;2023-12-22T13:55:21;6.97;;;2.10;;
18520;SDS011;9390;51.244;6.982;2023-12-22T13:57:58;4.85;;;2.05;;
18520;SDS011;9390;51.244;6.982;2023-12-22T14:00:30;6.30;;;2.10;;
18520;SDS011;9390;51.244;6.982;2023-12-22T14:03:02;9.27;;;2.22;;
18520;SDS011;9390;51.244;6.982;2023-12-22T14:05:35;7.82;;;2.00;;
18520;SDS011;9390;51.244;6.982;2023-12-22T14:08:06;6.88;;;1.88;;
18520;SDS011;9390;51.244;6.982;2023-12-22T14:10:38;7.20;;;2.30;;
18520;SDS011;9390;51.244;6.982;2023-12-22T14:13:15;7.63;;;2.67;;
18520;SDS011;9390;51.244;6.982;2023-12-22T14:15:47;8.25;;;2.40;;
18520;SDS011;9390;51.244;6.982;2023-12-22T14:18:18;7.45;;;2.20;;
18520;SDS011;9390;51.244;6.982;2023-12-22T14:20:51;8.32;;;2.28;;
18520;SDS011;9390;51.244;6.982;2023-12-22T14:23:22;9.43;;;2.97;;
18520;SDS011;9390;51.244;6.982;2023-12-22T14:25:54;8.32;;;2.35;;
18520;SDS011;9390;51.244;6.982;2023-12-22T14:28:25;8.57;;;2.55;;
18520;SDS011;9390;51.244;6.982;2023-12-22T14:30:57;7.55;;;3.05;;
18520;SDS011;9390;51.244;6.982;2023-12-22T14:33:29;9.55;;;2.83;;
18520;SDS011;9390;51.244;6.982;2023-12-22T14:36:01;5.65;;;2.33;;
18520;SDS011;9390;51.244;6.982;2023-12-22T14:38:33;5.20;;;2.10;;
18520;SDS011;9390;51.244;6.982;2023-12-22T14:41:05;8.70;;;2.55;;
18520;SDS011;9390;51.244;6.982;2023-12-22T14:43:37;10.32;;;2.33;;
18520;SDS011;9390;51.244;6.982;2023-12-22T14:46:08;12.25;;;3.08;;
18520;SDS011;9390;51.244;6.982;2023-12-22T14:48:40;7.35;;;2.40;;
18520;SDS011;9390;51.244;6.982;2023-12-22T14:51:13;6.90;;;2.10;;
18520;SDS011;9390;51.244;6.982;2023-12-22T14:53:44;7.28;;;2.10;;
18520;SDS011;9390;51.244;6.982;2023-12-22T14:56:16;7.90;;;2.22;;
18520;SDS011;9390;51.244;6.982;2023-12-22T14:58:47;6.72;;;2.17;;
18520;SDS011;9390;51.244;6.982;2023-12-22T15:01:18;7.90;;;2.30;;
18520;SDS011;9390;51.244;6.982;2023-12-22T15:03:50;7.57;;;2.10;;
18520;SDS011;9390;51.244;6.982;2023-12-22T15:06:23;7.20;;;2.00;;
18520;SDS011;9390;51.244;6.982;2023-12-22T15:08:54;8.60;;;2.50;;
18520;SDS011;9390;51.244;6.982;2023-12-22T15:11:26;10.45;;;2.13;;
18520;SDS011;9390;51.244;6.982;2023-12-22T15:13:57;8.18;;;2.28;;
18520;SDS011;9390;51.244;6.982;2023-12-22T15:16:29;8.73;;;2.15;;
18520;SDS011;9390;51.244;6.982;2023-12-22T15:19:01;8.88;;;2.15;;
18520;SDS011;9390;51.244;6.982;2023-12-22T15:21:34;8.60;;;2.10;;
18520;SDS011;9390;51.244;6.982;2023-12-22T15:24:07;8.32;;;2.25;;
18520;SDS011;9390;51.244;6.982;2023-12-22T15:26:38;8.27;;;2.67;;
18520;SDS011;9390;51.244;6.982;2023-12-22T15:29:09;9.48;;;2.80;;
18520;SDS011;9390;51.244;6.982;2023-12-22T15:31:41;6.85;;;2.25;;
18520;SDS011;9390;51.244;6.982;2023-12-22T15:34:12;11.45;;;2.20;;
18520;SDS011;9390;51.244;6.982;2023-12-22T15:36:45;9.55;;;2.30;;
18520;SDS011;9390;51.244;6.982;2023-12-22T15:39:17;6.70;;;2.10;;
18520;SDS011;9390;51.244;6.982;2023-12-22T15:41:49;12.18;;;2.20;;
18520;SDS011;9390;51.244;6.982;2023-12-22T15:44:20;8.45;;;2.10;;